Terminal Aerodrome Forecast
Issued by NWS

Home | Current Version | Previous Version | Text Only | Print | Product List | Glossary On
Versions: 1 2 3 4 5 6 7 8 9 10 11 12 13 14
063
FTUS43 KMPX 280532
TAFAXN
TAF
KAXN 280532Z 2806/2906 15012G18KT 6SM SHRA VCTS SCT020 BKN035CB
      BKN110
      TEMPO 2806/2809 3SM +TSRA BR OVC015CB
     FM281000 17012G18KT 6SM -SHRA BR SCT007 BKN015
     FM281500 21011KT P6SM SCT012 BKN025
     FM281900 26012KT P6SM SCT025 BKN040
     FM282200 30010KT P6SM SCT040=

USA.gov is the U.S. government's official web portal to all federal, state and local government web resources and services.